Time,TemperatureF,DewpointF,PressureIn,WindDirection,WindDirectionDegrees,WindSpeedMPH,WindSpeedGustMPH,Humidity,HourlyPrecipIn,Conditions,Clouds,dailyrainin,SoftwareType,DateUTC
2013-04-12 00:00:00,34.1,33.4,29.65,East,86,3.1,4.6,97,0.10,,,0.65,VWS V14.01,2013-04-12 04:00:00,
2013-04-12 00:02:00,34.1,33.4,29.65,NNE,18,0.6,6.0,97,0.08,,,0.00,VWS V14.01,2013-04-12 04:02:00,
2013-04-12 00:03:00,34.1,33.4,29.65,NE,41,4.0,6.0,97,0.08,,,0.00,VWS V14.01,2013-04-12 04:03:00,
2013-04-12 00:08:00,34.1,33.4,29.63,East,86,0.0,7.6,97,0.10,,,0.02,VWS V14.01,2013-04-12 04:08:00,
2013-04-12 00:10:00,34.1,33.4,29.64,NE,41,0.0,7.6,97,0.10,,,0.02,VWS V14.01,2013-04-12 04:10:00,
2013-04-12 00:13:00,34.1,33.4,29.64,NE,41,0.0,0.8,97,0.10,,,0.02,VWS V14.01,2013-04-12 04:13:00,
2013-04-12 00:18:00,34.1,33.4,29.65,ENE,64,4.6,4.6,97,0.10,,,0.02,VWS V14.01,2013-04-12 04:18:00,
2013-04-12 00:20:00,34.1,33.4,29.65,ENE,64,0.0,4.6,97,0.10,,,0.02,VWS V14.01,2013-04-12 04:20:00,
2013-04-12 00:23:00,34.1,33.4,29.65,East,86,0.0,1.3,97,0.08,,,0.02,VWS V14.01,2013-04-12 04:23:00,
2013-04-12 00:28:00,34.3,33.6,29.65,NE,41,0.8,6.7,97,0.08,,,0.02,VWS V14.01,2013-04-12 04:28:00,
2013-04-12 00:30:00,34.3,33.6,29.65,NE,41,0.0,6.7,97,0.08,,,0.02,VWS V14.01,2013-04-12 04:30:00,
2013-04-12 00:33:00,34.3,33.6,29.66,ENE,64,0.0,1.7,97,0.06,,,0.02,VWS V14.01,2013-04-12 04:33:00,
2013-04-12 00:38:00,34.3,33.6,29.66,ENE,64,6.4,6.4,97,0.06,,,0.02,VWS V14.01,2013-04-12 04:38:00,
2013-04-12 00:40:00,34.3,33.6,29.66,East,86,1.7,6.4,97,0.06,,,0.02,VWS V14.01,2013-04-12 04:40:00,
2013-04-12 00:43:00,34.3,33.6,29.64,ENE,64,0.0,1.7,97,0.06,,,0.02,VWS V14.01,2013-04-12 04:43:00,
2013-04-12 00:48:00,34.3,33.6,29.63,NE,41,1.3,4.9,97,0.06,,,0.02,VWS V14.01,2013-04-12 04:48:00,
2013-04-12 00:50:00,34.3,33.6,29.63,ENE,64,4.0,4.9,97,0.06,,,0.02,VWS V14.01,2013-04-12 04:50:00,
2013-04-12 00:54:00,34.3,33.6,29.62,ENE,64,3.1,5.1,97,0.04,,,0.02,VWS V14.01,2013-04-12 04:54:00,
2013-04-12 00:59:00,34.3,33.6,29.61,NE,41,0.0,5.1,97,0.04,,,0.02,VWS V14.01,2013-04-12 04:59:00,
2013-04-12 01:00:00,34.3,33.6,29.61,NE,41,0.4,5.8,97,0.04,,,0.02,VWS V14.01,2013-04-12 05:00:00,
2013-04-12 01:04:00,34.3,33.6,29.61,NE,41,2.6,2.6,97,0.02,,,0.02,VWS V14.01,2013-04-12 05:04:00,
2013-04-12 01:09:00,34.3,33.6,29.61,East,86,0.0,2.6,97,0.04,,,0.04,VWS V14.01,2013-04-12 05:09:00,
2013-04-12 01:10:00,34.3,33.6,29.61,NE,41,6.9,6.9,97,0.04,,,0.04,VWS V14.01,2013-04-12 05:10:00,
2013-04-12 01:14:00,34.3,33.6,29.61,ENE,64,1.7,6.9,97,0.02,,,0.04,VWS V14.01,2013-04-12 05:14:00,
2013-04-12 01:19:00,34.3,33.6,29.60,ENE,64,0.0,6.9,97,0.02,,,0.04,VWS V14.01,2013-04-12 05:19:00,
2013-04-12 01:20:00,34.3,33.6,29.60,ENE,64,0.0,6.9,97,0.02,,,0.04,VWS V14.01,2013-04-12 05:20:00,
2013-04-12 01:24:00,34.3,33.6,29.60,ENE,64,1.7,3.5,97,0.02,,,0.04,VWS V14.01,2013-04-12 05:24:00,
2013-04-12 01:29:00,34.3,33.6,29.60,NE,41,4.9,4.9,97,0.02,,,0.04,VWS V14.01,2013-04-12 05:29:00,
2013-04-12 01:30:00,34.3,33.6,29.60,ENE,64,5.8,5.8,97,0.02,,,0.04,VWS V14.01,2013-04-12 05:30:00,
2013-04-12 01:34:00,34.3,33.6,29.60,ENE,64,1.5,5.8,97,0.02,,,0.04,VWS V14.01,2013-04-12 05:34:00,
2013-04-12 01:39:00,34.3,33.6,29.59,ENE,64,0.0,6.0,97,0.02,,,0.04,VWS V14.01,2013-04-12 05:39:00,
2013-04-12 01:40:00,34.3,33.6,29.59,ENE,64,1.1,6.0,97,0.02,,,0.04,VWS V14.01,2013-04-12 05:40:00,
2013-04-12 01:44:00,34.3,33.6,29.59,East,86,0.0,1.1,97,0.02,,,0.04,VWS V14.01,2013-04-12 05:44:00,
2013-04-12 01:49:00,34.3,33.6,29.60,ENE,64,0.0,1.1,97,0.02,,,0.04,VWS V14.01,2013-04-12 05:49:00,
2013-04-12 01:50:00,34.3,33.6,29.60,ENE,64,1.5,1.5,97,0.02,,,0.04,VWS V14.01,2013-04-12 05:50:00,
2013-04-12 01:54:00,34.3,33.6,29.58,ESE,108,1.7,4.0,97,0.02,,,0.04,VWS V14.01,2013-04-12 05:54:00,
2013-04-12 02:00:00,34.3,33.6,29.58,ENE,64,0.0,4.0,97,0.02,,,0.04,VWS V14.01,2013-04-12 06:00:00,
2013-04-12 02:05:00,34.3,33.6,29.58,NE,41,4.0,5.5,97,0.04,,,0.06,VWS V14.01,2013-04-12 06:05:00,
2013-04-12 02:10:00,34.3,33.6,29.58,ENE,64,1.1,5.5,97,0.06,,,0.08,VWS V14.01,2013-04-12 06:10:00,
2013-04-12 02:15:00,34.3,33.6,29.59,East,86,0.0,4.4,97,0.04,,,0.08,VWS V14.01,2013-04-12 06:15:00,
2013-04-12 02:20:00,34.3,33.6,29.59,East,86,0.0,5.3,97,0.04,,,0.08,VWS V14.01,2013-04-12 06:20:00,
2013-04-12 02:25:00,34.3,33.6,29.59,East,86,0.0,1.3,97,0.04,,,0.08,VWS V14.01,2013-04-12 06:25:00,
2013-04-12 02:30:00,34.3,33.6,29.59,East,86,0.0,1.3,97,0.04,,,0.08,VWS V14.01,2013-04-12 06:30:00,
2013-04-12 02:35:00,34.3,33.6,29.59,ENE,64,0.0,0.0,97,0.04,,,0.08,VWS V14.01,2013-04-12 06:35:00,
2013-04-12 02:40:00,34.3,33.6,29.59,ENE,64,0.0,0.0,97,0.04,,,0.08,VWS V14.01,2013-04-12 06:40:00,
2013-04-12 02:45:00,34.3,33.6,29.59,ENE,64,0.0,0.0,97,0.06,,,0.10,VWS V14.01,2013-04-12 06:45:00,
2013-04-12 02:50:00,34.3,33.6,29.58,NNE,18,0.0,0.0,97,0.06,,,0.10,VWS V14.01,2013-04-12 06:50:00,
2013-04-12 02:55:00,34.5,33.8,29.58,NE,41,0.0,0.0,97,0.08,,,0.12,VWS V14.01,2013-04-12 06:55:00,
2013-04-12 03:00:00,34.3,33.6,29.58,NE,41,0.0,0.0,97,0.08,,,0.12,VWS V14.01,2013-04-12 07:00:00,
2013-04-12 03:05:00,34.3,33.6,29.58,NE,41,0.0,0.0,97,0.08,,,0.12,VWS V14.01,2013-04-12 07:05:00,
2013-04-12 03:10:00,34.5,33.8,29.58,NNE,18,0.0,0.0,97,0.04,,,0.12,VWS V14.01,2013-04-12 07:10:00,
2013-04-12 03:15:00,34.6,33.9,29.58,NNE,18,0.0,0.0,97,0.04,,,0.12,VWS V14.01,2013-04-12 07:15:00,
2013-04-12 03:20:00,34.6,33.9,29.58,NNE,18,0.0,0.0,97,0.04,,,0.12,VWS V14.01,2013-04-12 07:20:00,
2013-04-12 03:25:00,34.6,33.9,29.58,NNE,18,0.0,0.0,97,0.04,,,0.12,VWS V14.01,2013-04-12 07:25:00,
2013-04-12 03:30:00,34.6,33.9,29.57,NNE,18,0.0,0.0,97,0.04,,,0.12,VWS V14.01,2013-04-12 07:30:00,
2013-04-12 03:35:00,34.6,33.9,29.57,NNE,18,0.0,0.0,97,0.04,,,0.12,VWS V14.01,2013-04-12 07:35:00,
2013-04-12 03:40:00,34.6,33.9,29.57,NNE,18,0.0,0.0,97,0.02,,,0.12,VWS V14.01,2013-04-12 07:40:00,
2013-04-12 03:45:00,34.6,33.9,29.57,NNE,18,0.0,0.0,97,0.02,,,0.12,VWS V14.01,2013-04-12 07:45:00,
2013-04-12 03:50:00,34.6,33.9,29.56,North,356,0.0,0.0,97,0.02,,,0.12,VWS V14.01,2013-04-12 07:50:00,
2013-04-12 03:51:00,34.6,33.9,29.56,North,356,0.0,0.0,97,0.02,,,0.12,VWS V14.01,2013-04-12 07:51:00,
2013-04-12 03:56:00,34.6,33.9,29.58,North,356,0.0,0.0,97,0.02,,,0.12,VWS V14.01,2013-04-12 07:56:00,
2013-04-12 04:00:00,34.6,33.9,29.58,North,356,0.0,0.0,97,0.02,,,0.12,VWS V14.01,2013-04-12 08:00:00,
2013-04-12 04:02:00,34.6,33.9,29.58,North,356,0.0,0.0,97,0.00,,,0.12,VWS V14.01,2013-04-12 08:02:00,
2013-04-12 04:07:00,34.6,33.9,29.57,NNE,18,0.0,0.0,97,0.00,,,0.12,VWS V14.01,2013-04-12 08:07:00,
2013-04-12 04:10:00,34.6,33.9,29.58,NNE,18,0.0,0.0,97,0.00,,,0.12,VWS V14.01,2013-04-12 08:10:00,
2013-04-12 04:12:00,34.6,33.9,29.58,North,356,0.0,0.0,97,0.00,,,0.12,VWS V14.01,2013-04-12 08:12:00,
2013-04-12 04:17:00,34.6,33.9,29.56,North,356,0.0,3.8,97,0.00,,,0.12,VWS V14.01,2013-04-12 08:17:00,
2013-04-12 04:20:00,34.6,33.9,29.56,North,356,0.0,3.8,97,0.00,,,0.12,VWS V14.01,2013-04-12 08:20:00,
2013-04-12 04:22:00,34.6,33.9,29.56,North,356,0.0,0.0,97,0.00,,,0.12,VWS V14.01,2013-04-12 08:22:00,
2013-04-12 04:27:00,34.6,33.9,29.55,North,356,0.0,0.0,97,0.00,,,0.12,VWS V14.01,2013-04-12 08:27:00,
2013-04-12 04:30:00,34.6,33.9,29.55,North,356,0.0,0.0,97,0.00,,,0.12,VWS V14.01,2013-04-12 08:30:00,
2013-04-12 04:32:00,34.6,33.9,29.55,North,356,1.5,1.5,97,0.00,,,0.12,VWS V14.01,2013-04-12 08:32:00,
2013-04-12 04:38:00,34.6,33.9,29.55,NNE,18,4.0,4.0,97,0.00,,,0.12,VWS V14.01,2013-04-12 08:38:00,
2013-04-12 04:40:00,34.5,33.8,29.55,North,356,0.0,4.0,97,0.00,,,0.12,VWS V14.01,2013-04-12 08:40:00,
2013-04-12 04:43:00,34.3,33.6,29.55,North,356,0.0,0.0,97,0.00,,,0.12,VWS V14.01,2013-04-12 08:43:00,
2013-04-12 04:48:00,34.3,33.6,29.55,North,356,0.0,0.0,97,0.00,,,0.12,VWS V14.01,2013-04-12 08:48:00,
2013-04-12 04:50:00,34.3,33.6,29.55,NNW,334,2.4,2.4,97,0.00,,,0.12,VWS V14.01,2013-04-12 08:50:00,
2013-04-12 04:53:00,34.3,33.6,29.55,NNE,18,1.1,2.4,97,0.00,,,0.12,VWS V14.01,2013-04-12 08:53:00,
2013-04-12 04:58:00,34.3,33.6,29.56,NNW,334,0.0,2.4,97,0.02,,,0.14,VWS V14.01,2013-04-12 08:58:00,
2013-04-12 05:00:00,34.3,33.6,29.57,WNW,288,0.0,2.4,97,0.02,,,0.14,VWS V14.01,2013-04-12 09:00:00,
2013-04-12 05:03:00,34.3,33.6,29.57,WNW,288,0.0,0.6,97,0.02,,,0.14,VWS V14.01,2013-04-12 09:03:00,
2013-04-12 05:08:00,34.3,33.6,29.58,NW,311,0.0,0.6,97,0.02,,,0.14,VWS V14.01,2013-04-12 09:08:00,
2013-04-12 05:10:00,34.3,33.6,29.57,NNW,334,0.0,0.6,97,0.02,,,0.14,VWS V14.01,2013-04-12 09:10:00,
2013-04-12 05:13:00,34.5,33.8,29.57,NNW,334,2.0,2.0,97,0.02,,,0.14,VWS V14.01,2013-04-12 09:13:00,
2013-04-12 05:18:00,34.5,33.8,29.57,North,356,0.0,2.0,97,0.02,,,0.14,VWS V14.01,2013-04-12 09:18:00,
2013-04-12 05:20:00,34.5,33.8,29.57,North,356,0.0,2.0,97,0.02,,,0.14,VWS V14.01,2013-04-12 09:20:00,
2013-04-12 05:23:00,34.5,33.8,29.57,North,356,0.0,0.0,97,0.02,,,0.14,VWS V14.01,2013-04-12 09:23:00,
2013-04-12 05:28:00,34.6,33.9,29.57,North,356,0.0,0.0,97,0.04,,,0.16,VWS V14.01,2013-04-12 09:28:00,
2013-04-12 05:30:00,34.6,33.9,29.57,North,356,0.0,0.0,97,0.04,,,0.16,VWS V14.01,2013-04-12 09:30:00,
2013-04-12 05:33:00,34.6,33.9,29.57,North,356,0.0,0.0,97,0.04,,,0.16,VWS V14.01,2013-04-12 09:33:00,
2013-04-12 05:39:00,34.6,33.9,29.57,NNE,18,0.6,0.6,97,0.04,,,0.16,VWS V14.01,2013-04-12 09:39:00,
2013-04-12 05:40:00,34.6,33.9,29.57,NNE,18,0.0,0.6,97,0.04,,,0.16,VWS V14.01,2013-04-12 09:40:00,
2013-04-12 05:44:00,34.6,33.9,29.56,North,356,0.0,0.0,97,0.04,,,0.16,VWS V14.01,2013-04-12 09:44:00,
2013-04-12 05:49:00,34.6,33.9,29.55,North,356,0.0,0.0,97,0.04,,,0.16,VWS V14.01,2013-04-12 09:49:00,
2013-04-12 05:50:00,34.6,33.9,29.56,North,356,0.0,0.0,97,0.04,,,0.16,VWS V14.01,2013-04-12 09:50:00,
2013-04-12 05:54:00,34.6,33.9,29.55,NNW,334,0.0,0.0,97,0.04,,,0.16,VWS V14.01,2013-04-12 09:54:00,
2013-04-12 05:59:00,34.6,33.9,29.55,North,356,0.0,1.3,97,0.04,,,0.16,VWS V14.01,2013-04-12 09:59:00,
2013-04-12 06:00:00,34.6,33.9,29.55,NNW,334,0.0,1.3,97,0.04,,,0.16,VWS V14.01,2013-04-12 10:00:00,
2013-04-12 06:04:00,34.6,33.9,29.55,NNE,18,0.0,1.3,97,0.02,,,0.16,VWS V14.01,2013-04-12 10:04:00,
2013-04-12 06:09:00,34.6,33.9,29.54,NNE,18,2.0,2.0,97,0.02,,,0.16,VWS V14.01,2013-04-12 10:09:00,
2013-04-12 06:10:00,34.6,33.9,29.54,NNE,18,0.0,2.0,97,0.02,,,0.16,VWS V14.01,2013-04-12 10:10:00,
2013-04-12 06:14:00,34.6,33.9,29.54,NNE,18,0.0,2.6,97,0.02,,,0.16,VWS V14.01,2013-04-12 10:14:00,
2013-04-12 06:20:00,34.5,33.8,29.53,NNE,18,0.0,2.6,97,0.02,,,0.16,VWS V14.01,2013-04-12 10:20:00,
2013-04-12 06:25:00,34.3,33.6,29.53,NNE,18,0.0,0.0,97,0.02,,,0.16,VWS V14.01,2013-04-12 10:25:00,
2013-04-12 06:30:00,34.3,33.6,29.53,North,356,0.0,0.0,97,0.02,,,0.16,VWS V14.01,2013-04-12 10:30:00,
2013-04-12 06:35:00,34.3,33.6,29.53,NNE,18,0.0,0.8,97,0.00,,,0.16,VWS V14.01,2013-04-12 10:35:00,
2013-04-12 06:40:00,34.3,33.6,29.53,NNE,18,0.0,0.8,97,0.00,,,0.16,VWS V14.01,2013-04-12 10:40:00,
2013-04-12 06:45:00,34.1,33.4,29.52,NNW,334,1.7,1.7,97,0.00,,,0.16,VWS V14.01,2013-04-12 10:45:00,
2013-04-12 06:50:00,34.1,33.4,29.53,NNE,18,0.0,3.5,97,0.00,,,0.16,VWS V14.01,2013-04-12 10:50:00,
2013-04-12 06:51:00,34.1,33.4,29.53,NNE,18,0.0,0.0,97,0.00,,,0.16,VWS V14.01,2013-04-12 10:51:00,
2013-04-12 06:56:00,34.1,33.4,29.53,North,356,0.0,1.3,97,0.00,,,0.16,VWS V14.01,2013-04-12 10:56:00,
2013-04-12 07:00:00,34.1,33.4,29.53,North,356,0.0,1.7,97,0.00,,,0.16,VWS V14.01,2013-04-12 11:00:00,
2013-04-12 07:01:00,34.1,33.4,29.53,North,356,0.0,0.0,97,0.00,,,0.16,VWS V14.01,2013-04-12 11:01:00,
2013-04-12 07:07:00,34.1,33.4,29.53,North,356,0.0,0.0,97,0.00,,,0.16,VWS V14.01,2013-04-12 11:07:00,
2013-04-12 07:10:00,34.1,33.4,29.53,North,356,0.0,0.0,97,0.00,,,0.16,VWS V14.01,2013-04-12 11:10:00,
2013-04-12 07:12:00,34.1,33.4,29.53,North,356,0.0,0.0,97,0.00,,,0.16,VWS V14.01,2013-04-12 11:12:00,
2013-04-12 07:17:00,34.1,33.4,29.53,North,356,0.0,0.0,97,0.00,,,0.16,VWS V14.01,2013-04-12 11:17:00,
2013-04-12 07:20:00,34.1,33.4,29.54,NNE,18,0.0,0.0,97,0.00,,,0.16,VWS V14.01,2013-04-12 11:20:00,
2013-04-12 07:22:00,34.1,33.4,29.54,NNE,18,0.0,0.0,97,0.00,,,0.16,VWS V14.01,2013-04-12 11:22:00,
2013-04-12 07:28:00,34.3,33.6,29.54,North,356,0.0,0.0,97,0.00,,,0.16,VWS V14.01,2013-04-12 11:28:00,
2013-04-12 07:30:00,34.3,33.6,29.54,North,356,0.0,0.0,97,0.00,,,0.16,VWS V14.01,2013-04-12 11:30:00,
2013-04-12 07:33:00,34.3,33.6,29.54,North,356,0.0,0.0,97,0.00,,,0.16,VWS V14.01,2013-04-12 11:33:00,
2013-04-12 07:38:00,34.3,33.6,29.54,North,356,0.0,0.0,97,0.00,,,0.16,VWS V14.01,2013-04-12 11:38:00,
2013-04-12 07:40:00,34.3,33.6,29.54,North,356,0.0,0.0,97,0.00,,,0.16,VWS V14.01,2013-04-12 11:40:00,
2013-04-12 07:43:00,34.3,33.6,29.54,North,356,0.0,0.0,97,0.00,,,0.16,VWS V14.01,2013-04-12 11:43:00,
2013-04-12 07:48:00,34.3,33.6,29.55,North,356,0.0,0.0,97,0.00,,,0.16,VWS V14.01,2013-04-12 11:48:00,
2013-04-12 07:50:00,34.5,33.8,29.55,North,356,0.0,0.0,97,0.00,,,0.16,VWS V14.01,2013-04-12 11:50:00,
2013-04-12 07:53:00,34.3,33.6,29.55,North,356,0.0,0.0,97,0.00,,,0.16,VWS V14.01,2013-04-12 11:53:00,
2013-04-12 07:58:00,34.5,33.8,29.55,North,356,0.0,0.0,97,0.00,,,0.16,VWS V14.01,2013-04-12 11:58:00,
2013-04-12 08:00:00,34.6,33.9,29.55,North,356,0.0,0.0,97,0.00,,,0.16,VWS V14.01,2013-04-12 12:00:00,
2013-04-12 08:03:00,34.6,33.9,29.55,North,356,0.0,0.0,97,0.00,,,0.16,VWS V14.01,2013-04-12 12:03:00,
2013-04-12 08:09:00,34.6,33.9,29.55,North,356,0.0,0.0,97,0.00,,,0.16,VWS V14.01,2013-04-12 12:09:00,
2013-04-12 08:10:00,34.6,33.9,29.55,North,356,0.0,0.0,97,0.00,,,0.16,VWS V14.01,2013-04-12 12:10:00,
2013-04-12 08:14:00,34.6,33.9,29.55,North,356,0.0,0.0,97,0.00,,,0.16,VWS V14.01,2013-04-12 12:14:00,
2013-04-12 08:19:00,34.6,33.9,29.55,North,356,0.0,0.0,97,0.00,,,0.16,VWS V14.01,2013-04-12 12:19:00,
2013-04-12 08:20:00,34.6,33.9,29.55,North,356,0.0,0.0,97,0.00,,,0.16,VWS V14.01,2013-04-12 12:20:00,
2013-04-12 08:24:00,34.6,33.9,29.55,North,356,0.0,0.0,97,0.00,,,0.16,VWS V14.01,2013-04-12 12:24:00,
2013-04-12 08:29:00,34.6,33.9,29.55,North,356,0.0,0.0,97,0.00,,,0.16,VWS V14.01,2013-04-12 12:29:00,
2013-04-12 08:30:00,34.8,34.2,29.55,North,356,0.0,0.0,97,0.00,,,0.16,VWS V14.01,2013-04-12 12:30:00,
2013-04-12 08:34:00,34.8,34.2,29.55,North,356,0.0,0.0,97,0.00,,,0.16,VWS V14.01,2013-04-12 12:34:00,
2013-04-12 08:39:00,35.0,34.3,29.55,North,356,0.0,0.0,97,0.00,,,0.16,VWS V14.01,2013-04-12 12:39:00,
2013-04-12 08:40:00,35.0,34.3,29.55,North,356,0.0,0.0,97,0.00,,,0.16,VWS V14.01,2013-04-12 12:40:00,
2013-04-12 08:44:00,35.2,34.6,29.55,North,356,0.0,0.0,97,0.00,,,0.16,VWS V14.01,2013-04-12 12:44:00,
2013-04-12 08:49:00,35.2,34.6,29.55,North,356,0.0,0.0,97,0.00,,,0.16,VWS V14.01,2013-04-12 12:49:00,
2013-04-12 08:50:00,35.2,34.6,29.55,North,356,0.0,0.0,97,0.00,,,0.16,VWS V14.01,2013-04-12 12:50:00,
2013-04-12 08:55:00,35.4,34.8,29.55,North,356,0.0,0.0,97,0.00,,,0.16,VWS V14.01,2013-04-12 12:55:00,
2013-04-12 09:00:00,35.4,34.8,29.56,North,356,0.0,0.0,97,0.00,,,0.16,VWS V14.01,2013-04-12 13:00:00,
2013-04-12 09:05:00,35.5,34.9,29.56,North,356,0.0,0.0,97,0.00,,,0.16,VWS V14.01,2013-04-12 13:05:00,
2013-04-12 09:10:00,35.7,35.1,29.56,North,356,0.0,0.0,97,0.00,,,0.16,VWS V14.01,2013-04-12 13:10:00,
2013-04-12 09:15:00,35.9,35.3,29.56,North,356,0.0,0.0,97,0.00,,,0.16,VWS V14.01,2013-04-12 13:15:00,
2013-04-12 09:20:00,36.1,35.5,29.56,NW,311,0.0,0.0,97,0.00,,,0.16,VWS V14.01,2013-04-12 13:20:00,
2013-04-12 09:25:00,36.1,35.5,29.56,SW,221,0.0,0.0,97,0.00,,,0.16,VWS V14.01,2013-04-12 13:25:00,
2013-04-12 09:30:00,36.5,35.8,29.56,SW,221,0.0,0.0,97,0.00,,,0.16,VWS V14.01,2013-04-12 13:30:00,
2013-04-12 09:36:00,36.5,35.8,29.57,SW,221,0.0,0.0,97,0.00,,,0.16,VWS V14.01,2013-04-12 13:36:00,
2013-04-12 09:40:00,36.7,36.0,29.56,WSW,244,1.5,1.5,97,0.00,,,0.16,VWS V14.01,2013-04-12 13:40:00,
2013-04-12 09:41:00,36.7,36.0,29.56,WSW,244,1.5,1.5,97,0.00,,,0.16,VWS V14.01,2013-04-12 13:41:00,
2013-04-12 09:46:00,36.9,36.2,29.56,SW,221,0.0,1.5,97,0.00,,,0.16,VWS V14.01,2013-04-12 13:46:00,
2013-04-12 09:50:00,37.1,36.4,29.57,SW,221,0.0,4.0,97,0.00,,,0.16,VWS V14.01,2013-04-12 13:50:00,
2013-04-12 09:51:00,37.1,36.4,29.57,SW,221,0.0,0.0,97,0.00,,,0.16,VWS V14.01,2013-04-12 13:51:00,
2013-04-12 09:56:00,37.1,36.4,29.56,WSW,244,0.0,2.0,97,0.00,,,0.16,VWS V14.01,2013-04-12 13:56:00,
2013-04-12 10:00:00,37.3,36.6,29.56,SW,221,4.6,4.6,97,0.00,,,0.16,VWS V14.01,2013-04-12 14:00:00,
2013-04-12 10:02:00,37.3,36.6,29.56,SW,221,2.4,4.6,97,0.00,,,0.16,VWS V14.01,2013-04-12 14:02:00,
2013-04-12 10:07:00,37.4,36.7,29.56,SW,221,0.0,4.6,97,0.00,,,0.16,VWS V14.01,2013-04-12 14:07:00,
2013-04-12 10:10:00,37.4,36.7,29.57,WSW,244,0.0,4.6,97,0.00,,,0.16,VWS V14.01,2013-04-12 14:10:00,
2013-04-12 10:13:00,37.4,36.7,29.57,SW,221,4.4,4.4,97,0.00,,,0.16,VWS V14.01,2013-04-12 14:13:00,
2013-04-12 10:18:00,37.6,37.0,29.57,SSW,198,1.7,4.4,97,0.00,,,0.16,VWS V14.01,2013-04-12 14:18:00,
2013-04-12 10:20:00,37.8,37.2,29.57,WSW,244,0.0,4.4,97,0.00,,,0.16,VWS V14.01,2013-04-12 14:20:00,
2013-04-12 10:23:00,37.8,36.8,29.58,WSW,244,2.4,2.4,96,0.00,,,0.16,VWS V14.01,2013-04-12 14:23:00,
2013-04-12 10:28:00,37.8,36.8,29.57,WSW,244,0.0,6.7,96,0.00,,,0.16,VWS V14.01,2013-04-12 14:28:00,
2013-04-12 10:30:00,37.8,37.2,29.58,West,266,0.0,6.7,97,0.00,,,0.16,VWS V14.01,2013-04-12 14:30:00,
2013-04-12 10:33:00,37.8,37.2,29.58,WSW,244,3.3,6.4,97,0.00,,,0.16,VWS V14.01,2013-04-12 14:33:00,
2013-04-12 10:38:00,37.8,37.2,29.58,WSW,244,6.2,6.7,97,0.00,,,0.16,VWS V14.01,2013-04-12 14:38:00,
2013-04-12 10:40:00,37.8,37.2,29.58,SW,221,2.4,6.7,97,0.00,,,0.16,VWS V14.01,2013-04-12 14:40:00,
2013-04-12 10:43:00,38.0,37.4,29.58,SW,221,5.3,6.0,97,0.00,,,0.16,VWS V14.01,2013-04-12 14:43:00,
2013-04-12 10:48:00,38.0,37.4,29.58,WSW,244,5.8,8.5,97,0.00,,,0.16,VWS V14.01,2013-04-12 14:48:00,
2013-04-12 10:50:00,38.0,37.4,29.58,WSW,244,8.9,8.9,97,0.00,,,0.16,VWS V14.01,2013-04-12 14:50:00,
2013-04-12 10:54:00,38.0,37.4,29.58,WSW,244,2.9,8.9,97,0.00,,,0.16,VWS V14.01,2013-04-12 14:54:00,
2013-04-12 10:59:00,38.3,37.7,29.58,SW,221,6.4,8.9,97,0.00,,,0.16,VWS V14.01,2013-04-12 14:59:00,
2013-04-12 11:00:00,38.3,37.7,29.58,WSW,244,3.3,8.9,97,0.00,,,0.16,VWS V14.01,2013-04-12 15:00:00,
2013-04-12 11:04:00,38.3,37.7,29.59,SW,221,5.5,5.5,97,0.00,,,0.16,VWS V14.01,2013-04-12 15:04:00,
2013-04-12 11:09:00,38.3,37.7,29.59,SW,221,4.6,7.3,97,0.00,,,0.16,VWS V14.01,2013-04-12 15:09:00,
2013-04-12 11:10:00,38.3,37.7,29.59,WSW,244,4.4,7.3,97,0.00,,,0.16,VWS V14.01,2013-04-12 15:10:00,
2013-04-12 11:14:00,38.3,37.7,29.58,SW,221,7.1,7.1,97,0.00,,,0.16,VWS V14.01,2013-04-12 15:14:00,
2013-04-12 11:19:00,38.3,37.7,29.59,SW,221,1.7,7.1,97,0.00,,,0.16,VWS V14.01,2013-04-12 15:19:00,
2013-04-12 11:20:00,38.3,37.7,29.59,WNW,288,9.1,9.1,97,0.00,,,0.16,VWS V14.01,2013-04-12 15:20:00,
2013-04-12 11:24:00,38.5,37.9,29.59,WSW,244,0.0,10.5,97,0.00,,,0.16,VWS V14.01,2013-04-12 15:24:00,
2013-04-12 11:29:00,38.5,37.9,29.59,SW,221,4.0,10.5,97,0.00,,,0.16,VWS V14.01,2013-04-12 15:29:00,
2013-04-12 11:30:00,38.7,38.1,29.58,WSW,244,4.0,10.5,97,0.00,,,0.16,VWS V14.01,2013-04-12 15:30:00,
2013-04-12 11:34:00,38.7,38.1,29.59,WSW,244,2.4,5.3,97,0.00,,,0.16,VWS V14.01,2013-04-12 15:34:00,
2013-04-12 11:39:00,39.0,37.9,29.59,West,266,0.0,7.6,96,0.00,,,0.16,VWS V14.01,2013-04-12 15:39:00,
2013-04-12 11:40:00,39.0,38.3,29.59,West,266,0.0,7.6,97,0.00,,,0.16,VWS V14.01,2013-04-12 15:40:00,
2013-04-12 11:44:00,39.2,38.1,29.59,SSW,198,3.1,4.6,96,0.00,,,0.16,VWS V14.01,2013-04-12 15:44:00,
2013-04-12 11:49:00,39.5,38.4,29.60,West,266,4.4,8.9,96,0.00,,,0.16,VWS V14.01,2013-04-12 15:49:00,
2013-04-12 11:50:00,39.5,38.4,29.60,West,266,0.0,8.9,96,0.00,,,0.16,VWS V14.01,2013-04-12 15:50:00,
2013-04-12 11:54:00,39.7,38.6,29.60,WSW,244,8.9,8.9,96,0.00,,,0.16,VWS V14.01,2013-04-12 15:54:00,
2013-04-12 12:00:00,39.9,38.8,29.60,West,266,1.5,8.9,96,0.00,,,0.16,VWS V14.01,2013-04-12 16:00:00,
2013-04-12 12:05:00,40.1,39.0,29.60,West,266,0.0,11.6,96,0.00,,,0.16,VWS V14.01,2013-04-12 16:05:00,
2013-04-12 12:10:00,40.1,39.0,29.60,WSW,244,3.8,11.6,96,0.00,,,0.16,VWS V14.01,2013-04-12 16:10:00,
2013-04-12 12:15:00,40.2,39.2,29.60,WSW,244,8.7,8.7,96,0.00,,,0.16,VWS V14.01,2013-04-12 16:15:00,
2013-04-12 12:20:00,40.4,39.4,29.61,SW,221,7.3,8.7,96,0.00,,,0.16,VWS V14.01,2013-04-12 16:20:00,
2013-04-12 12:25:00,40.6,39.6,29.60,WNW,288,1.1,10.5,96,0.00,,,0.16,VWS V14.01,2013-04-12 16:25:00,
2013-04-12 12:30:00,40.8,39.8,29.60,West,266,6.9,6.9,96,0.00,,,0.16,VWS V14.01,2013-04-12 16:30:00,
2013-04-12 12:35:00,41.0,40.0,29.60,WSW,244,6.2,8.7,96,0.00,,,0.16,VWS V14.01,2013-04-12 16:35:00,
2013-04-12 12:40:00,41.1,40.1,29.60,SSW,198,6.9,8.7,96,0.00,,,0.16,VWS V14.01,2013-04-12 16:40:00,
2013-04-12 12:41:00,41.1,40.1,29.60,SSW,198,6.9,6.9,96,0.00,,,0.16,VWS V14.01,2013-04-12 16:41:00,
2013-04-12 12:46:00,41.3,40.3,29.60,WSW,244,6.7,10.9,96,0.00,,,0.16,VWS V14.01,2013-04-12 16:46:00,
2013-04-12 12:50:00,41.1,39.7,29.60,WSW,244,6.2,10.9,95,0.00,,,0.16,VWS V14.01,2013-04-12 16:50:00,
2013-04-12 12:51:00,41.1,39.7,29.60,WSW,244,6.2,6.2,95,0.00,,,0.16,VWS V14.01,2013-04-12 16:51:00,
2013-04-12 12:56:00,41.1,39.7,29.60,SW,221,4.6,8.5,95,0.00,,,0.16,VWS V14.01,2013-04-12 16:56:00,
2013-04-12 13:00:00,41.1,39.7,29.60,West,266,2.0,8.9,95,0.00,,,0.16,VWS V14.01,2013-04-12 17:00:00,
2013-04-12 13:01:00,41.1,39.7,29.60,West,266,2.0,2.0,95,0.00,,,0.16,VWS V14.01,2013-04-12 17:01:00,
2013-04-12 13:07:00,41.1,39.7,29.60,West,266,6.2,8.0,95,0.00,,,0.16,VWS V14.01,2013-04-12 17:07:00,
2013-04-12 13:10:00,41.1,39.7,29.61,West,266,7.6,8.0,95,0.00,,,0.16,VWS V14.01,2013-04-12 17:10:00,
2013-04-12 13:12:00,41.1,39.7,29.60,SW,221,6.4,7.6,95,0.00,,,0.16,VWS V14.01,2013-04-12 17:12:00,
2013-04-12 13:17:00,41.1,39.3,29.61,West,266,0.0,7.6,93,0.00,,,0.16,VWS V14.01,2013-04-12 17:17:00,
2013-04-12 13:20:00,41.1,39.3,29.60,SW,221,2.9,7.6,93,0.00,,,0.16,VWS V14.01,2013-04-12 17:20:00,
2013-04-12 13:22:00,41.5,39.7,29.60,SW,221,6.4,6.4,93,0.00,,,0.16,VWS V14.01,2013-04-12 17:22:00,
2013-04-12 13:27:00,41.8,39.9,29.60,WSW,244,5.3,6.4,93,0.00,,,0.16,VWS V14.01,2013-04-12 17:27:00,
2013-04-12 13:30:00,41.8,39.9,29.60,WSW,244,8.0,8.0,93,0.00,,,0.16,VWS V14.01,2013-04-12 17:30:00,
2013-04-12 13:33:00,41.8,39.9,29.60,SW,221,6.9,8.9,93,0.00,,,0.16,VWS V14.01,2013-04-12 17:33:00,
2013-04-12 13:38:00,42.1,40.2,29.60,West,266,0.0,8.9,93,0.00,,,0.16,VWS V14.01,2013-04-12 17:38:00,
2013-04-12 13:40:00,42.1,40.2,29.61,West,266,6.2,8.9,93,0.00,,,0.16,VWS V14.01,2013-04-12 17:40:00,
2013-04-12 13:43:00,42.3,40.4,29.61,WSW,244,4.0,6.2,93,0.00,,,0.16,VWS V14.01,2013-04-12 17:43:00,
2013-04-12 13:48:00,42.5,40.7,29.61,SSW,198,9.1,9.1,93,0.00,,,0.16,VWS V14.01,2013-04-12 17:48:00,
2013-04-12 13:50:00,42.5,40.7,29.61,West,266,4.9,10.5,93,0.00,,,0.16,VWS V14.01,2013-04-12 17:50:00,
2013-04-12 13:55:00,42.5,40.7,29.62,WSW,244,14.0,14.0,93,0.00,,,0.16,VWS V14.01,2013-04-12 17:55:00,
2013-04-12 14:00:00,42.3,40.4,29.61,West,266,6.4,14.0,93,0.00,,,0.16,VWS V14.01,2013-04-12 18:00:00,
2013-04-12 14:07:00,42.3,40.4,29.62,WSW,244,1.1,14.9,93,0.00,,,0.16,VWS V14.01,2013-04-12 18:07:00,
2013-04-12 14:10:00,42.3,40.4,29.62,West,266,10.0,14.9,93,0.00,,,0.16,VWS V14.01,2013-04-12 18:10:00,
2013-04-12 14:12:00,42.3,40.4,29.62,West,266,3.3,10.0,93,0.00,,,0.16,VWS V14.01,2013-04-12 18:12:00,
2013-04-12 14:19:00,42.1,40.2,29.62,SW,221,12.3,12.3,93,0.00,,,0.16,VWS V14.01,2013-04-12 18:19:00,
2013-04-12 14:20:00,42.1,40.2,29.62,SW,221,6.2,12.3,93,0.00,,,0.16,VWS V14.01,2013-04-12 18:20:00,
2013-04-12 14:24:00,42.1,40.2,29.62,SW,221,8.7,11.6,93,0.00,,,0.16,VWS V14.01,2013-04-12 18:24:00,
2013-04-12 14:30:00,42.0,40.1,29.63,SSW,198,7.6,11.6,93,0.00,,,0.16,VWS V14.01,2013-04-12 18:30:00,
2013-04-12 14:40:00,41.8,39.5,29.63,West,266,0.0,12.3,92,0.00,,,0.16,VWS V14.01,2013-04-12 18:40:00,
2013-04-12 14:50:00,41.3,39.1,29.63,SW,221,9.6,9.8,92,0.00,,,0.16,VWS V14.01,2013-04-12 18:50:00,
2013-04-12 15:00:00,41.1,38.5,29.63,WNW,288,6.7,14.0,90,0.00,,,0.16,VWS V14.01,2013-04-12 19:00:00,
2013-04-12 15:10:00,41.1,38.5,29.64,SW,221,10.5,11.4,90,0.00,,,0.16,VWS V14.01,2013-04-12 19:10:00,
2013-04-12 15:20:00,41.0,38.0,29.64,West,266,5.3,10.5,89,0.00,,,0.16,VWS V14.01,2013-04-12 19:20:00,
2013-04-12 15:27:00,41.0,38.0,29.64,SW,221,5.1,6.9,89,0.00,,,0.16,VWS V14.01,2013-04-12 19:27:00,
2013-04-12 15:28:00,41.0,38.0,29.65,WSW,244,10.0,10.0,89,0.00,,,0.16,VWS V14.01,2013-04-12 19:28:00,
2013-04-12 15:30:00,41.0,38.0,29.65,West,266,4.6,12.7,89,0.00,,,0.16,VWS V14.01,2013-04-12 19:30:00,
2013-04-12 15:35:00,40.8,37.8,29.65,WSW,244,4.2,8.7,89,0.00,,,0.16,VWS V14.01,2013-04-12 19:35:00,
2013-04-12 15:40:00,40.8,37.8,29.65,WSW,244,12.9,13.1,89,0.00,,,0.16,VWS V14.01,2013-04-12 19:40:00,
2013-04-12 15:45:00,40.8,37.4,29.65,SW,221,6.9,12.9,87,0.00,,,0.16,VWS V14.01,2013-04-12 19:45:00,
2013-04-12 15:50:00,40.8,37.0,29.65,SW,221,6.2,6.2,86,0.00,,,0.16,VWS V14.01,2013-04-12 19:50:00,
2013-04-12 15:56:00,40.6,36.3,29.65,WSW,244,6.4,12.7,85,0.00,,,0.16,VWS V14.01,2013-04-12 19:56:00,
2013-04-12 16:00:00,40.6,36.3,29.65,West,266,7.8,12.9,85,0.00,,,0.16,VWS V14.01,2013-04-12 20:00:00,
2013-04-12 16:01:00,40.6,36.3,29.65,West,266,7.8,7.8,85,0.00,,,0.16,VWS V14.01,2013-04-12 20:01:00,
2013-04-12 16:06:00,40.4,36.1,29.66,WSW,244,3.5,10.0,85,0.00,,,0.16,VWS V14.01,2013-04-12 20:06:00,
2013-04-12 16:10:00,40.2,35.9,29.66,West,266,8.2,10.7,85,0.00,,,0.16,VWS V14.01,2013-04-12 20:10:00,
2013-04-12 16:11:00,40.2,35.9,29.66,West,266,8.2,8.2,85,0.00,,,0.16,VWS V14.01,2013-04-12 20:11:00,
2013-04-12 16:16:00,40.1,35.8,29.66,West,266,3.5,9.1,85,0.00,,,0.16,VWS V14.01,2013-04-12 20:16:00,
2013-04-12 16:20:00,40.1,35.4,29.66,SSW,198,6.4,10.2,83,0.00,,,0.16,VWS V14.01,2013-04-12 20:20:00,
2013-04-12 16:21:00,40.1,35.4,29.66,SSW,198,6.4,6.4,83,0.00,,,0.16,VWS V14.01,2013-04-12 20:21:00,
2013-04-12 16:27:00,39.9,35.2,29.67,WSW,244,8.2,11.4,83,0.00,,,0.16,VWS V14.01,2013-04-12 20:27:00,
2013-04-12 16:30:00,40.1,35.4,29.66,WSW,244,2.6,11.4,83,0.00,,,0.16,VWS V14.01,2013-04-12 20:30:00,
2013-04-12 16:32:00,39.9,35.2,29.66,SW,221,9.8,9.8,83,0.00,,,0.16,VWS V14.01,2013-04-12 20:32:00,
2013-04-12 16:37:00,40.1,35.4,29.67,SW,221,10.7,10.7,83,0.00,,,0.16,VWS V14.01,2013-04-12 20:37:00,
2013-04-12 16:40:00,40.2,35.5,29.67,WSW,244,5.5,10.7,83,0.00,,,0.16,VWS V14.01,2013-04-12 20:40:00,
2013-04-12 16:42:00,40.2,35.5,29.67,SW,221,8.0,8.0,83,0.00,,,0.16,VWS V14.01,2013-04-12 20:42:00,
2013-04-12 16:47:00,40.4,35.2,29.67,West,266,12.9,14.5,82,0.00,,,0.16,VWS V14.01,2013-04-12 20:47:00,
2013-04-12 16:50:00,40.4,35.2,29.67,WSW,244,6.4,14.5,82,0.00,,,0.16,VWS V14.01,2013-04-12 20:50:00,
2013-04-12 16:52:00,40.6,35.4,29.67,SSW,198,8.9,8.9,82,0.00,,,0.16,VWS V14.01,2013-04-12 20:52:00,
2013-04-12 16:57:00,40.6,35.0,29.67,WNW,288,5.3,11.8,80,0.00,,,0.16,VWS V14.01,2013-04-12 20:57:00,
2013-04-12 17:00:00,40.6,35.0,29.67,SSW,198,17.0,17.0,80,0.00,,,0.16,VWS V14.01,2013-04-12 21:00:00,
2013-04-12 17:02:00,40.6,35.0,29.67,WSW,244,6.9,17.0,80,0.00,,,0.16,VWS V14.01,2013-04-12 21:02:00,
2013-04-12 17:07:00,40.4,34.8,29.68,WSW,244,7.8,17.0,80,0.00,,,0.16,VWS V14.01,2013-04-12 21:07:00,
2013-04-12 17:10:00,40.4,34.8,29.68,WNW,288,8.7,17.0,80,0.00,,,0.16,VWS V14.01,2013-04-12 21:10:00,
2013-04-12 17:12:00,40.4,34.8,29.68,WSW,244,4.4,9.3,80,0.00,,,0.16,VWS V14.01,2013-04-12 21:12:00,
2013-04-12 17:17:00,40.2,34.6,29.68,WSW,244,5.1,14.5,80,0.00,,,0.16,VWS V14.01,2013-04-12 21:17:00,
2013-04-12 17:20:00,40.2,34.6,29.68,West,266,6.7,14.5,80,0.00,,,0.16,VWS V14.01,2013-04-12 21:20:00,
2013-04-12 17:22:00,40.2,34.6,29.69,WSW,244,4.9,12.0,80,0.00,,,0.16,VWS V14.01,2013-04-12 21:22:00,
2013-04-12 17:27:00,40.1,34.5,29.69,WSW,244,7.6,12.0,80,0.00,,,0.16,VWS V14.01,2013-04-12 21:27:00,
2013-04-12 17:30:00,39.9,34.3,29.69,WSW,244,12.5,12.5,80,0.00,,,0.16,VWS V14.01,2013-04-12 21:30:00,
2013-04-12 17:32:00,40.1,34.5,29.69,WSW,244,6.0,12.5,80,0.00,,,0.16,VWS V14.01,2013-04-12 21:32:00,
2013-04-12 17:38:00,40.2,34.6,29.69,WSW,244,3.1,12.5,80,0.00,,,0.16,VWS V14.01,2013-04-12 21:38:00,
2013-04-12 17:40:00,40.2,34.6,29.69,WSW,244,0.0,12.5,80,0.00,,,0.16,VWS V14.01,2013-04-12 21:40:00,
2013-04-12 17:43:00,40.2,34.6,29.69,West,266,1.7,1.7,80,0.00,,,0.16,VWS V14.01,2013-04-12 21:43:00,
2013-04-12 17:48:00,40.4,34.8,29.69,WSW,244,4.4,6.7,80,0.00,,,0.16,VWS V14.01,2013-04-12 21:48:00,
2013-04-12 17:50:00,40.4,34.8,29.69,West,266,3.3,6.7,80,0.00,,,0.16,VWS V14.01,2013-04-12 21:50:00,
2013-04-12 17:53:00,40.6,35.0,29.69,West,266,6.9,6.9,80,0.00,,,0.16,VWS V14.01,2013-04-12 21:53:00,
2013-04-12 17:58:00,40.6,35.0,29.69,WSW,244,8.9,9.8,80,0.00,,,0.16,VWS V14.01,2013-04-12 21:58:00,
2013-04-12 18:00:00,40.6,35.0,29.69,WSW,244,6.4,11.8,80,0.00,,,0.16,VWS V14.01,2013-04-12 22:00:00,
2013-04-12 18:03:00,40.6,35.0,29.69,SSW,198,8.2,8.2,80,0.00,,,0.16,VWS V14.01,2013-04-12 22:03:00,
2013-04-12 18:08:00,40.8,35.2,29.69,WSW,244,6.7,8.2,80,0.00,,,0.16,VWS V14.01,2013-04-12 22:08:00,
2013-04-12 18:10:00,40.8,34.7,29.70,SW,221,6.4,8.2,79,0.00,,,0.16,VWS V14.01,2013-04-12 22:10:00,
2013-04-12 18:13:00,40.8,34.7,29.70,SSW,198,5.8,6.4,79,0.00,,,0.16,VWS V14.01,2013-04-12 22:13:00,
2013-04-12 18:18:00,40.8,34.7,29.70,SSW,198,4.2,8.2,79,0.00,,,0.16,VWS V14.01,2013-04-12 22:18:00,
2013-04-12 18:20:00,40.8,34.7,29.70,SW,221,5.5,14.5,79,0.00,,,0.16,VWS V14.01,2013-04-12 22:20:00,
2013-04-12 18:23:00,40.8,34.7,29.70,SSW,198,8.2,9.6,79,0.00,,,0.16,VWS V14.01,2013-04-12 22:23:00,
2013-04-12 18:28:00,41.0,35.0,29.71,WSW,244,13.1,13.1,79,0.00,,,0.16,VWS V14.01,2013-04-12 22:28:00,
2013-04-12 18:30:00,41.0,35.0,29.70,SW,221,6.7,13.1,79,0.00,,,0.16,VWS V14.01,2013-04-12 22:30:00,
2013-04-12 18:33:00,41.0,34.5,29.71,WSW,244,8.2,8.2,77,0.00,,,0.16,VWS V14.01,2013-04-12 22:33:00,
2013-04-12 18:38:00,41.0,34.5,29.71,WSW,244,5.3,15.4,77,0.00,,,0.16,VWS V14.01,2013-04-12 22:38:00,
2013-04-12 18:40:00,40.8,34.3,29.71,West,266,4.6,15.4,77,0.00,,,0.16,VWS V14.01,2013-04-12 22:40:00,
2013-04-12 18:43:00,40.8,34.3,29.71,SW,221,7.3,7.3,77,0.00,,,0.16,VWS V14.01,2013-04-12 22:43:00,
2013-04-12 18:48:00,40.8,34.7,29.71,WSW,244,5.5,7.3,79,0.00,,,0.16,VWS V14.01,2013-04-12 22:48:00,
2013-04-12 18:50:00,40.8,34.7,29.70,SW,221,5.5,7.3,79,0.00,,,0.16,VWS V14.01,2013-04-12 22:50:00,
2013-04-12 18:53:00,40.8,34.7,29.71,WSW,244,2.9,5.5,79,0.00,,,0.16,VWS V14.01,2013-04-12 22:53:00,
2013-04-12 18:58:00,40.8,34.7,29.71,SW,221,6.4,9.3,79,0.00,,,0.16,VWS V14.01,2013-04-12 22:58:00,
2013-04-12 19:00:00,40.8,34.7,29.71,SW,221,3.3,9.3,79,0.00,,,0.16,VWS V14.01,2013-04-12 23:00:00,
2013-04-12 19:03:00,40.8,34.7,29.71,SW,221,6.0,6.4,79,0.00,,,0.16,VWS V14.01,2013-04-12 23:03:00,
2013-04-12 19:08:00,40.8,34.7,29.71,SSW,198,6.9,6.9,79,0.00,,,0.16,VWS V14.01,2013-04-12 23:08:00,
2013-04-12 19:10:00,40.8,34.7,29.71,SW,221,6.2,6.9,79,0.00,,,0.16,VWS V14.01,2013-04-12 23:10:00,
2013-04-12 19:14:00,40.8,34.7,29.71,SW,221,4.0,10.2,79,0.00,,,0.16,VWS V14.01,2013-04-12 23:14:00,
2013-04-12 19:19:00,40.8,34.7,29.71,SSW,198,5.1,10.2,79,0.00,,,0.16,VWS V14.01,2013-04-12 23:19:00,
2013-04-12 19:20:00,40.8,34.7,29.71,WSW,244,0.0,10.2,79,0.00,,,0.16,VWS V14.01,2013-04-12 23:20:00,
2013-04-12 19:24:00,40.8,34.7,29.71,SSW,198,4.4,10.7,79,0.00,,,0.16,VWS V14.01,2013-04-12 23:24:00,
2013-04-12 19:29:00,40.8,34.7,29.71,WSW,244,6.0,10.7,79,0.00,,,0.16,VWS V14.01,2013-04-12 23:29:00,
2013-04-12 19:30:00,40.6,34.5,29.71,WSW,244,9.6,10.7,79,0.00,,,0.16,VWS V14.01,2013-04-12 23:30:00,
2013-04-12 19:34:00,40.8,34.7,29.71,WSW,244,2.6,9.6,79,0.00,,,0.16,VWS V14.01,2013-04-12 23:34:00,
2013-04-12 19:39:00,40.6,34.5,29.71,WSW,244,8.9,9.6,79,0.00,,,0.16,VWS V14.01,2013-04-12 23:39:00,
2013-04-12 19:40:00,40.6,34.5,29.71,SSW,198,4.4,9.6,79,0.00,,,0.16,VWS V14.01,2013-04-12 23:40:00,
2013-04-12 19:44:00,40.6,34.5,29.71,SSW,198,3.5,6.0,79,0.00,,,0.16,VWS V14.01,2013-04-12 23:44:00,
2013-04-12 19:49:00,40.6,34.5,29.71,SW,221,8.5,8.5,79,0.00,,,0.16,VWS V14.01,2013-04-12 23:49:00,
2013-04-12 19:50:00,40.6,34.5,29.71,West,266,1.3,8.5,79,0.00,,,0.16,VWS V14.01,2013-04-12 23:50:00,
2013-04-12 19:54:00,40.6,34.5,29.71,SW,221,3.1,6.9,79,0.00,,,0.16,VWS V14.01,2013-04-12 23:54:00,
2013-04-12 19:59:00,40.6,34.5,29.71,SW,221,7.8,7.8,79,0.00,,,0.16,VWS V14.01,2013-04-12 23:59:00,
2013-04-12 20:00:00,40.6,34.5,29.71,WSW,244,1.7,7.8,79,0.00,,,0.16,VWS V14.01,2013-04-13 00:00:00,
2013-04-12 20:04:00,40.4,34.8,29.71,SW,221,2.9,9.1,80,0.00,,,0.16,VWS V14.01,2013-04-13 00:04:00,
2013-04-12 20:10:00,40.4,34.8,29.71,SW,221,11.6,11.6,80,0.00,,,0.16,VWS V14.01,2013-04-13 00:10:00,
2013-04-12 20:15:00,40.4,34.8,29.71,SW,221,4.9,6.4,80,0.00,,,0.16,VWS V14.01,2013-04-13 00:15:00,
2013-04-12 20:20:00,40.4,34.8,29.71,SW,221,4.4,7.1,80,0.00,,,0.16,VWS V14.01,2013-04-13 00:20:00,
2013-04-12 20:25:00,40.2,34.6,29.71,SW,221,5.5,9.6,80,0.00,,,0.16,VWS V14.01,2013-04-13 00:25:00,
2013-04-12 20:30:00,40.2,34.6,29.71,SW,221,5.3,9.6,80,0.00,,,0.16,VWS V14.01,2013-04-13 00:30:00,
2013-04-12 20:35:00,40.2,34.6,29.71,SW,221,8.2,8.5,80,0.00,,,0.16,VWS V14.01,2013-04-13 00:35:00,
2013-04-12 20:40:00,40.2,34.6,29.72,SSW,198,6.2,9.8,80,0.00,,,0.16,VWS V14.01,2013-04-13 00:40:00,
2013-04-12 20:45:00,40.2,34.6,29.72,SW,221,0.4,8.0,80,0.00,,,0.16,VWS V14.01,2013-04-13 00:45:00,
2013-04-12 20:50:00,40.2,35.0,29.73,SSW,198,2.0,8.0,82,0.00,,,0.16,VWS V14.01,2013-04-13 00:50:00,
2013-04-12 20:55:00,40.2,35.0,29.73,SW,221,0.0,7.3,82,0.00,,,0.16,VWS V14.01,2013-04-13 00:55:00,
2013-04-12 21:00:00,40.2,35.0,29.73,SW,221,2.2,2.2,82,0.00,,,0.16,VWS V14.01,2013-04-13 01:00:00,
2013-04-12 21:05:00,40.1,35.4,29.73,WSW,244,6.2,8.9,83,0.00,,,0.16,VWS V14.01,2013-04-13 01:05:00,
2013-04-12 21:10:00,40.1,35.4,29.73,SW,221,1.3,1.3,83,0.00,,,0.16,VWS V14.01,2013-04-13 01:10:00,
2013-04-12 21:15:00,39.9,35.6,29.73,North,356,0.0,6.2,85,0.00,,,0.16,VWS V14.01,2013-04-13 01:15:00,
2013-04-12 21:20:00,39.9,35.6,29.73,SW,221,3.1,6.4,85,0.00,,,0.16,VWS V14.01,2013-04-13 01:20:00,
2013-04-12 21:21:00,39.9,35.6,29.73,SW,221,3.1,3.1,85,0.00,,,0.16,VWS V14.01,2013-04-13 01:21:00,
2013-04-12 21:26:00,39.7,35.4,29.73,SW,221,2.4,6.2,85,0.00,,,0.16,VWS V14.01,2013-04-13 01:26:00,
2013-04-12 21:30:00,39.7,35.4,29.73,SW,221,2.0,6.9,85,0.00,,,0.16,VWS V14.01,2013-04-13 01:30:00,
2013-04-12 21:32:00,39.7,35.4,29.73,SW,221,3.8,3.8,85,0.00,,,0.16,VWS V14.01,2013-04-13 01:32:00,
2013-04-12 21:37:00,39.7,35.8,29.73,SW,221,4.9,6.7,86,0.00,,,0.16,VWS V14.01,2013-04-13 01:37:00,
2013-04-12 21:40:00,39.5,35.6,29.73,SSW,198,5.1,6.7,86,0.00,,,0.16,VWS V14.01,2013-04-13 01:40:00,
2013-04-12 21:42:00,39.5,35.6,29.73,WSW,244,5.5,6.2,86,0.00,,,0.16,VWS V14.01,2013-04-13 01:42:00,
2013-04-12 21:47:00,39.5,35.6,29.73,WSW,244,1.5,6.7,86,0.00,,,0.16,VWS V14.01,2013-04-13 01:47:00,
2013-04-12 21:50:00,39.5,35.6,29.73,WSW,244,3.8,6.7,86,0.00,,,0.16,VWS V14.01,2013-04-13 01:50:00,
2013-04-12 21:52:00,39.3,35.4,29.73,SW,221,2.6,3.8,86,0.00,,,0.16,VWS V14.01,2013-04-13 01:52:00,
2013-04-12 21:57:00,39.3,35.8,29.73,SSW,198,5.1,8.2,87,0.00,,,0.16,VWS V14.01,2013-04-13 01:57:00,
2013-04-12 22:00:00,39.5,36.0,29.73,SSW,198,0.0,8.2,87,0.00,,,0.16,VWS V14.01,2013-04-13 02:00:00,
2013-04-12 22:02:00,39.3,35.8,29.73,SW,221,1.5,5.3,87,0.00,,,0.16,VWS V14.01,2013-04-13 02:02:00,
2013-04-12 22:07:00,39.5,36.0,29.73,South,176,5.8,6.7,87,0.00,,,0.16,VWS V14.01,2013-04-13 02:07:00,
2013-04-12 22:10:00,39.3,35.8,29.74,SW,221,4.6,6.7,87,0.00,,,0.16,VWS V14.01,2013-04-13 02:10:00,
2013-04-12 22:12:00,39.3,35.8,29.74,WSW,244,4.9,4.9,87,0.00,,,0.16,VWS V14.01,2013-04-13 02:12:00,
2013-04-12 22:17:00,39.3,35.8,29.74,SSW,198,1.7,7.6,87,0.00,,,0.16,VWS V14.01,2013-04-13 02:17:00,
2013-04-12 22:20:00,39.3,35.8,29.74,WSW,244,6.4,7.6,87,0.00,,,0.16,VWS V14.01,2013-04-13 02:20:00,
2013-04-12 22:23:00,39.3,35.8,29.74,SW,221,7.6,7.6,87,0.00,,,0.16,VWS V14.01,2013-04-13 02:23:00,
2013-04-12 22:28:00,39.3,36.2,29.74,SW,221,6.0,7.6,89,0.00,,,0.16,VWS V14.01,2013-04-13 02:28:00,
2013-04-12 22:30:00,39.3,36.2,29.74,SW,221,3.1,7.6,89,0.00,,,0.16,VWS V14.01,2013-04-13 02:30:00,
2013-04-12 22:33:00,39.3,36.2,29.74,SW,221,5.8,6.7,89,0.00,,,0.16,VWS V14.01,2013-04-13 02:33:00,
2013-04-12 22:38:00,39.3,36.2,29.74,SSW,198,2.0,9.3,89,0.00,,,0.16,VWS V14.01,2013-04-13 02:38:00,
2013-04-12 22:40:00,39.3,36.2,29.74,SW,221,6.9,9.3,89,0.00,,,0.16,VWS V14.01,2013-04-13 02:40:00,
2013-04-12 22:43:00,39.3,36.2,29.74,SW,221,6.9,6.9,89,0.00,,,0.16,VWS V14.01,2013-04-13 02:43:00,
2013-04-12 22:48:00,39.3,36.2,29.74,SW,221,4.0,6.9,89,0.00,,,0.16,VWS V14.01,2013-04-13 02:48:00,
2013-04-12 22:50:00,39.3,36.2,29.74,SW,221,7.6,7.6,89,0.00,,,0.16,VWS V14.01,2013-04-13 02:50:00,
2013-04-12 22:53:00,39.3,36.2,29.74,SW,221,5.5,7.6,89,0.00,,,0.16,VWS V14.01,2013-04-13 02:53:00,
2013-04-12 22:58:00,39.3,36.2,29.74,SW,221,6.7,8.0,89,0.00,,,0.16,VWS V14.01,2013-04-13 02:58:00,
2013-04-12 23:00:00,39.3,36.2,29.74,WSW,244,5.1,8.0,89,0.00,,,0.16,VWS V14.01,2013-04-13 03:00:00,
2013-04-12 23:04:00,39.3,36.2,29.74,SW,221,6.7,6.7,89,0.00,,,0.16,VWS V14.01,2013-04-13 03:04:00,
2013-04-12 23:09:00,39.3,36.2,29.74,SW,221,0.0,7.1,89,0.00,,,0.16,VWS V14.01,2013-04-13 03:09:00,
2013-04-12 23:10:00,39.3,36.7,29.74,WSW,244,6.0,7.1,90,0.00,,,0.16,VWS V14.01,2013-04-13 03:10:00,
2013-04-12 23:14:00,39.3,36.7,29.74,SW,221,6.0,7.1,90,0.00,,,0.16,VWS V14.01,2013-04-13 03:14:00,
2013-04-12 23:19:00,39.3,36.7,29.74,SW,221,5.1,7.1,90,0.00,,,0.16,VWS V14.01,2013-04-13 03:19:00,
2013-04-12 23:20:00,39.3,36.7,29.74,SW,221,2.9,7.1,90,0.00,,,0.16,VWS V14.01,2013-04-13 03:20:00,
2013-04-12 23:24:00,39.5,36.9,29.74,SSW,198,4.9,6.9,90,0.00,,,0.16,VWS V14.01,2013-04-13 03:24:00,
2013-04-12 23:29:00,39.5,36.9,29.74,SW,221,6.2,6.9,90,0.00,,,0.16,VWS V14.01,2013-04-13 03:29:00,
2013-04-12 23:30:00,39.5,36.9,29.74,SW,221,6.7,6.9,90,0.00,,,0.16,VWS V14.01,2013-04-13 03:30:00,
2013-04-12 23:35:00,39.5,36.9,29.74,South,176,2.6,6.7,90,0.00,,,0.16,VWS V14.01,2013-04-13 03:35:00,
2013-04-12 23:40:00,39.5,36.9,29.74,SW,221,3.5,6.7,90,0.00,,,0.16,VWS V14.01,2013-04-13 03:40:00,
2013-04-12 23:45:00,39.7,37.1,29.74,SW,221,7.6,7.8,90,0.00,,,0.16,VWS V14.01,2013-04-13 03:45:00,
2013-04-12 23:50:00,39.7,37.1,29.74,SSW,198,6.2,7.8,90,0.00,,,0.16,VWS V14.01,2013-04-13 03:50:00,
2013-04-12 23:55:00,39.7,36.7,29.74,SW,221,8.7,8.7,89,0.00,,,0.16,VWS V14.01,2013-04-13 03:55:00,